createdAt,value
2022-09-30T00:01:47.390Z,10.40
2022-09-30T00:04:17.041Z,10.40
2022-09-30T00:06:46.263Z,10.40
2022-09-30T00:09:14.652Z,10.40
2022-09-30T00:11:42.490Z,10.30
2022-09-30T00:14:18.319Z,10.30
2022-09-30T00:16:47.631Z,10.30
2022-09-30T00:19:14.585Z,10.20
2022-09-30T00:21:43.766Z,10.20
2022-09-30T00:24:10.901Z,10.20
2022-09-30T00:26:37.610Z,10.20
2022-09-30T00:29:04.828Z,10.10
2022-09-30T00:31:33.767Z,10.10
2022-09-30T00:34:06.924Z,10.10
2022-09-30T00:36:45.669Z,10.10
2022-09-30T00:39:29.660Z,10.00
2022-09-30T00:42:00.045Z,10.00
2022-09-30T00:44:44.419Z,10.00
2022-09-30T00:47:32.820Z,9.90
2022-09-30T00:50:25.940Z,10.00
2022-09-30T00:53:08.245Z,9.90
2022-09-30T00:55:39.967Z,9.90
2022-09-30T00:58:14.456Z,9.90
2022-09-30T01:00:41.381Z,9.90
2022-09-30T01:03:08.294Z,9.90
2022-09-30T01:05:36.517Z,9.80
2022-09-30T01:08:08.078Z,9.80
2022-09-30T01:10:37.094Z,9.80
2022-09-30T01:13:07.533Z,9.80
2022-09-30T01:15:53.939Z,9.80
2022-09-30T01:18:46.031Z,9.70
2022-09-30T01:22:14.926Z,9.70
2022-09-30T01:25:11.442Z,9.70
2022-09-30T01:27:50.150Z,9.70
2022-09-30T01:30:45.579Z,9.70
2022-09-30T01:33:32.929Z,9.70
2022-09-30T01:36:34.341Z,9.60
2022-09-30T01:39:42.464Z,9.60
2022-09-30T01:42:25.092Z,9.60
2022-09-30T01:45:19.804Z,9.50
2022-09-30T01:48:24.475Z,9.50
2022-09-30T01:51:08.916Z,9.50
2022-09-30T01:53:41.858Z,9.40
2022-09-30T01:56:13.525Z,9.40
2022-09-30T01:58:51.349Z,9.40
2022-09-30T02:01:30.434Z,9.40
2022-09-30T02:04:05.434Z,9.40
2022-09-30T02:06:50.667Z,9.40
2022-09-30T02:09:30.261Z,9.30
2022-09-30T02:12:05.401Z,9.30
2022-09-30T02:14:39.788Z,9.30
2022-09-30T02:17:15.957Z,9.30
2022-09-30T02:20:04.150Z,9.30
2022-09-30T02:23:08.253Z,9.30
2022-09-30T02:25:43.402Z,9.20
2022-09-30T02:28:17.241Z,9.20
2022-09-30T02:30:47.432Z,9.20
2022-09-30T02:33:21.207Z,9.20
2022-09-30T02:35:54.139Z,9.10
2022-09-30T02:38:30.678Z,9.10
2022-09-30T02:41:02.320Z,9.10
2022-09-30T02:43:29.788Z,9.10
2022-09-30T02:46:20.826Z,9.10
2022-09-30T02:49:10.242Z,9.10
2022-09-30T02:51:56.893Z,9.10
2022-09-30T02:54:49.661Z,9.00
2022-09-30T02:57:22.093Z,9.00
2022-09-30T02:59:52.067Z,9.00
2022-09-30T03:02:21.272Z,9.00
2022-09-30T03:04:49.707Z,9.00
2022-09-30T03:07:16.847Z,9.00
2022-09-30T03:09:44.480Z,8.90
2022-09-30T03:12:25.909Z,8.90
2022-09-30T03:15:14.427Z,8.90
2022-09-30T03:18:23.281Z,8.90
2022-09-30T03:21:11.957Z,8.90
2022-09-30T03:24:01.750Z,8.90
2022-09-30T03:26:38.016Z,8.90
2022-09-30T03:29:14.859Z,8.90
2022-09-30T03:32:02.608Z,8.80
2022-09-30T03:34:37.660Z,8.80
2022-09-30T03:37:18.021Z,8.80
2022-09-30T03:39:55.197Z,8.80
2022-09-30T03:42:40.938Z,8.80
2022-09-30T03:45:33.093Z,8.80
2022-09-30T03:48:04.172Z,8.80
2022-09-30T03:50:35.577Z,8.80
2022-09-30T03:53:10.812Z,8.80
2022-09-30T03:55:53.928Z,8.80
2022-09-30T03:58:24.856Z,8.80
2022-09-30T04:00:56.855Z,8.80
2022-09-30T04:03:33.481Z,8.80
2022-09-30T04:06:01.257Z,8.80
2022-09-30T04:08:31.833Z,8.80
2022-09-30T04:11:04.609Z,8.80
2022-09-30T04:13:31.648Z,8.80
2022-09-30T04:15:58.451Z,8.80
2022-09-30T04:18:31.708Z,8.70
2022-09-30T04:21:04.557Z,8.70
2022-09-30T04:23:36.041Z,8.70
2022-09-30T04:26:05.322Z,8.70
2022-09-30T04:28:32.599Z,8.70
2022-09-30T04:31:00.688Z,8.60
2022-09-30T04:33:29.853Z,8.60
2022-09-30T04:36:00.099Z,8.60
2022-09-30T04:38:29.280Z,8.60
2022-09-30T04:40:56.041Z,8.60
2022-09-30T04:43:23.762Z,8.50
2022-09-30T04:46:00.746Z,8.60
2022-09-30T04:48:31.287Z,8.50
2022-09-30T04:51:01.159Z,8.50
2022-09-30T04:53:29.335Z,8.50
2022-09-30T04:56:02.331Z,8.50
2022-09-30T04:58:33.344Z,8.50
2022-09-30T05:01:08.980Z,8.50
2022-09-30T05:03:36.231Z,8.50
2022-09-30T05:06:04.798Z,8.50
2022-09-30T05:08:34.694Z,8.50
2022-09-30T05:11:04.872Z,8.50
2022-09-30T05:13:35.000Z,8.50
2022-09-30T05:16:02.691Z,8.50
2022-09-30T05:18:30.028Z,8.50
2022-09-30T05:20:57.896Z,8.50
2022-09-30T05:23:25.486Z,8.40
2022-09-30T05:25:52.727Z,8.50
2022-09-30T05:28:20.107Z,8.40
2022-09-30T05:30:54.206Z,8.50
2022-09-30T05:33:20.822Z,8.40
2022-09-30T05:35:47.712Z,8.40
2022-09-30T05:38:14.322Z,8.50
2022-09-30T05:40:41.002Z,8.50
2022-09-30T05:43:07.931Z,8.50
2022-09-30T05:45:34.987Z,8.40
2022-09-30T05:48:02.345Z,8.40
2022-09-30T05:50:29.007Z,8.40
2022-09-30T05:52:57.382Z,8.40
2022-09-30T05:55:24.583Z,8.40
2022-09-30T05:57:52.063Z,8.40
2022-09-30T06:00:19.962Z,8.50
2022-09-30T06:02:50.670Z,8.50
2022-09-30T06:05:17.648Z,8.50
2022-09-30T06:07:44.271Z,8.50
2022-09-30T06:10:12.269Z,8.50
2022-09-30T06:12:39.660Z,8.50
2022-09-30T06:15:06.812Z,8.50
2022-09-30T06:17:34.757Z,8.60
2022-09-30T06:20:02.095Z,8.60
2022-09-30T06:22:28.706Z,8.60
2022-09-30T06:24:55.595Z,8.70
2022-09-30T06:27:22.291Z,8.70
2022-09-30T06:29:49.270Z,8.70
2022-09-30T06:32:16.076Z,8.80
2022-09-30T06:34:44.848Z,8.80
2022-09-30T06:37:15.931Z,8.80
2022-09-30T06:39:42.519Z,8.90
2022-09-30T06:42:09.386Z,8.90
2022-09-30T06:44:46.054Z,9.00
2022-09-30T06:47:24.747Z,9.00
2022-09-30T06:49:53.009Z,9.10
2022-09-30T06:52:20.167Z,9.20
2022-09-30T06:54:46.947Z,9.20
2022-09-30T06:57:13.806Z,9.20
2022-09-30T06:59:40.645Z,9.30
2022-09-30T07:02:08.999Z,9.30
2022-09-30T07:04:35.692Z,9.40
2022-09-30T07:07:02.874Z,9.40
2022-09-30T07:09:29.598Z,9.50
2022-09-30T07:11:56.235Z,9.60
2022-09-30T07:14:23.937Z,9.60
2022-09-30T07:16:53.622Z,9.70
2022-09-30T07:19:22.886Z,9.70
2022-09-30T07:21:50.342Z,9.80
2022-09-30T07:24:17.846Z,9.90
2022-09-30T07:26:47.265Z,10.00
2022-09-30T07:29:13.949Z,10.00
2022-09-30T07:31:41.233Z,10.10
2022-09-30T07:34:10.216Z,10.20
2022-09-30T07:36:39.213Z,10.20
2022-09-30T07:39:08.683Z,10.30
2022-09-30T07:41:38.705Z,10.40
2022-09-30T07:44:08.968Z,10.50
2022-09-30T07:46:38.896Z,10.50
2022-09-30T07:49:12.379Z,10.60
2022-09-30T07:51:41.442Z,10.70
2022-09-30T07:54:14.956Z,10.70
2022-09-30T07:57:09.813Z,10.80
2022-09-30T07:59:32.308Z,10.90
2022-09-30T08:01:59.035Z,10.90
2022-09-30T08:04:27.528Z,11.00
2022-09-30T08:07:00.241Z,11.00
2022-09-30T08:09:29.302Z,11.10
2022-09-30T08:11:56.176Z,11.20
2022-09-30T08:14:25.826Z,11.20
2022-09-30T08:16:53.548Z,11.30
2022-09-30T08:19:23.304Z,11.40
2022-09-30T08:21:51.303Z,11.40
2022-09-30T08:24:18.006Z,11.50
2022-09-30T08:26:44.699Z,11.60
2022-09-30T08:29:19.987Z,11.60
2022-09-30T08:31:47.866Z,11.70
2022-09-30T08:34:15.005Z,11.70
2022-09-30T08:36:41.625Z,11.80
2022-09-30T08:39:10.744Z,11.80
2022-09-30T08:42:35.544Z,11.90
2022-09-30T08:45:26.557Z,12.00
2022-09-30T08:48:20.203Z,12.10
2022-09-30T08:51:02.807Z,12.20
2022-09-30T08:53:31.237Z,12.20
2022-09-30T08:56:02.517Z,12.30
2022-09-30T08:58:44.235Z,12.40
2022-09-30T09:01:20.412Z,12.40
2022-09-30T09:03:47.381Z,12.50
2022-09-30T09:06:22.792Z,12.60
2022-09-30T09:08:58.149Z,12.60
2022-09-30T09:11:58.389Z,12.70
2022-09-30T09:14:38.698Z,12.80
2022-09-30T09:17:22.901Z,12.90
2022-09-30T09:20:03.305Z,12.90
2022-09-30T09:22:34.136Z,13.00
2022-09-30T09:25:03.969Z,13.10
2022-09-30T09:27:54.659Z,13.10
2022-09-30T09:30:23.723Z,13.20
2022-09-30T09:32:55.167Z,13.30
2022-09-30T09:35:49.853Z,13.40
2022-09-30T09:38:35.890Z,13.50
2022-09-30T09:41:14.244Z,13.50
2022-09-30T09:43:52.855Z,13.60
2022-09-30T09:46:34.271Z,13.70
2022-09-30T09:49:24.061Z,13.80
2022-09-30T09:52:06.932Z,13.90
2022-09-30T09:54:42.054Z,13.90
2022-09-30T09:57:10.569Z,14.00
2022-09-30T09:59:53.688Z,14.10
2022-09-30T10:02:30.024Z,14.10
2022-09-30T10:05:01.238Z,14.20
2022-09-30T10:07:30.375Z,14.30
2022-09-30T10:10:30.128Z,14.40
2022-09-30T10:12:57.304Z,14.50
2022-09-30T10:15:26.263Z,14.50
2022-09-30T10:17:58.288Z,14.60
2022-09-30T10:20:31.630Z,14.70
2022-09-30T10:23:19.274Z,14.80
2022-09-30T10:25:56.162Z,14.90
2022-09-30T10:28:25.923Z,14.90
2022-09-30T10:31:01.797Z,15.00
2022-09-30T10:33:34.146Z,15.10
2022-09-30T10:36:12.492Z,15.20
2022-09-30T10:39:01.168Z,15.40
2022-09-30T10:41:33.670Z,15.50
2022-09-30T10:44:03.119Z,15.60
2022-09-30T10:46:39.007Z,15.80
2022-09-30T10:49:36.754Z,15.90
2022-09-30T10:52:04.554Z,16.10
2022-09-30T10:54:40.350Z,16.10
2022-09-30T10:57:26.906Z,16.20
2022-09-30T11:00:08.983Z,16.30
2022-09-30T11:02:44.796Z,16.40
2022-09-30T11:05:33.999Z,16.50
2022-09-30T11:08:15.378Z,16.60
2022-09-30T11:10:56.620Z,16.70
2022-09-30T11:13:46.417Z,16.80
2022-09-30T11:16:27.747Z,16.90
2022-09-30T11:19:18.407Z,17.00
2022-09-30T11:22:25.677Z,17.00
2022-09-30T11:24:54.433Z,17.00
2022-09-30T11:27:28.164Z,17.00
2022-09-30T11:30:13.077Z,17.10
2022-09-30T11:33:02.480Z,17.10
2022-09-30T11:35:55.091Z,17.10
2022-09-30T11:38:41.199Z,17.20
2022-09-30T11:41:26.728Z,17.30
2022-09-30T11:44:27.307Z,17.40
2022-09-30T11:47:09.521Z,17.60
2022-09-30T11:49:48.281Z,17.70
2022-09-30T11:52:32.944Z,17.80
2022-09-30T11:55:11.820Z,18.00
2022-09-30T11:58:17.122Z,18.10
2022-09-30T12:00:54.857Z,18.20
2022-09-30T12:03:21.658Z,18.30
2022-09-30T12:05:51.314Z,18.50
2022-09-30T12:08:24.158Z,18.50
2022-09-30T12:11:03.990Z,18.60
2022-09-30T12:13:36.448Z,18.70
2022-09-30T12:16:08.739Z,18.70
2022-09-30T12:18:40.954Z,18.70
2022-09-30T12:21:22.150Z,18.70
2022-09-30T12:24:02.701Z,18.70
2022-09-30T12:26:32.307Z,18.60
2022-09-30T12:29:33.714Z,18.60
2022-09-30T12:32:19.136Z,18.60
2022-09-30T12:34:54.567Z,18.70
2022-09-30T12:37:28.268Z,18.70
2022-09-30T12:40:22.667Z,18.80
2022-09-30T12:43:05.468Z,18.90
2022-09-30T12:45:37.883Z,19.00
2022-09-30T12:48:15.063Z,19.20
2022-09-30T12:50:52.853Z,19.30
2022-09-30T12:53:30.673Z,19.40
2022-09-30T12:56:26.106Z,19.50
2022-09-30T12:58:53.217Z,19.60
2022-09-30T13:01:29.912Z,19.70
2022-09-30T13:03:59.375Z,19.70
2022-09-30T13:06:47.103Z,19.70
2022-09-30T13:09:16.414Z,19.80
2022-09-30T13:11:46.076Z,19.80
2022-09-30T13:14:26.184Z,19.80
2022-09-30T13:17:08.240Z,19.80
2022-09-30T13:19:40.294Z,19.80
2022-09-30T13:22:19.180Z,19.80
2022-09-30T13:24:58.149Z,19.80
2022-09-30T13:27:34.870Z,19.80
2022-09-30T13:30:22.093Z,19.80
2022-09-30T13:33:02.129Z,19.80
2022-09-30T13:35:43.543Z,19.90
2022-09-30T13:38:13.003Z,20.20
2022-09-30T13:41:11.217Z,20.90
2022-09-30T13:43:50.820Z,21.70
2022-09-30T13:46:43.280Z,22.50
2022-09-30T13:49:21.462Z,23.50
2022-09-30T13:51:48.913Z,24.30
2022-09-30T13:54:33.946Z,25.00
2022-09-30T13:57:03.534Z,25.40
2022-09-30T13:59:48.174Z,25.80
2022-09-30T14:02:52.497Z,26.10
2022-09-30T14:05:43.383Z,26.60
2022-09-30T14:08:24.636Z,27.00
2022-09-30T14:11:02.141Z,27.60
2022-09-30T14:13:45.274Z,28.20
2022-09-30T14:16:35.279Z,28.80
2022-09-30T14:19:22.781Z,29.60
2022-09-30T14:21:54.240Z,30.40
2022-09-30T14:24:26.897Z,31.00
2022-09-30T14:27:02.774Z,31.60
2022-09-30T14:29:57.597Z,32.10
2022-09-30T14:32:50.261Z,32.60
2022-09-30T14:35:20.427Z,33.10
2022-09-30T14:38:04.229Z,33.40
2022-09-30T14:40:34.874Z,33.50
2022-09-30T14:43:06.005Z,33.50
2022-09-30T14:45:36.193Z,33.50
2022-09-30T14:48:12.825Z,33.60
2022-09-30T14:50:56.550Z,33.80
2022-09-30T14:53:32.837Z,34.00
2022-09-30T14:56:04.921Z,34.20
2022-09-30T14:58:39.825Z,34.30
2022-09-30T15:01:12.634Z,34.50
2022-09-30T15:03:40.980Z,34.60
2022-09-30T15:06:19.102Z,34.70
2022-09-30T15:08:47.499Z,34.70
2022-09-30T15:11:27.216Z,34.80
2022-09-30T15:14:06.911Z,34.80
2022-09-30T15:16:34.002Z,34.80
2022-09-30T15:19:01.149Z,35.00
2022-09-30T15:21:31.837Z,35.10
2022-09-30T15:24:00.570Z,35.20
2022-09-30T15:26:27.819Z,35.20
2022-09-30T15:28:54.819Z,35.20
2022-09-30T15:31:30.675Z,35.00
2022-09-30T15:34:21.903Z,34.90
2022-09-30T15:37:29.731Z,34.70
2022-09-30T15:40:15.027Z,34.40
2022-09-30T15:42:45.512Z,33.90
2022-09-30T15:45:18.501Z,33.30
2022-09-30T15:47:58.242Z,32.60
2022-09-30T15:51:01.289Z,31.80
2022-09-30T15:53:38.417Z,31.00
2022-09-30T15:56:24.041Z,30.30
2022-09-30T15:58:58.685Z,29.60
2022-09-30T16:01:34.572Z,28.90
2022-09-30T16:04:05.302Z,28.30
2022-09-30T16:06:37.653Z,27.80
2022-09-30T16:09:18.932Z,27.30
2022-09-30T16:12:00.399Z,26.80
2022-09-30T16:14:31.032Z,26.40
2022-09-30T16:17:02.174Z,25.90
2022-09-30T16:19:29.909Z,25.40
2022-09-30T16:21:57.758Z,25.10
2022-09-30T16:24:24.297Z,24.70
2022-09-30T16:27:15.419Z,24.40
2022-09-30T16:29:44.932Z,24.10
2022-09-30T16:32:14.064Z,23.80
2022-09-30T16:34:47.233Z,23.40
2022-09-30T16:37:19.056Z,23.20
2022-09-30T16:39:50.282Z,22.90
2022-09-30T16:42:18.022Z,22.60
2022-09-30T16:44:46.808Z,22.40
2022-09-30T16:47:20.915Z,22.10
2022-09-30T16:49:47.876Z,21.90
2022-09-30T16:52:14.889Z,21.70
2022-09-30T16:54:42.711Z,21.50
2022-09-30T16:57:14.818Z,21.20
2022-09-30T16:59:41.476Z,21.00
2022-09-30T17:02:15.085Z,20.80
2022-09-30T17:04:45.316Z,20.60
2022-09-30T17:07:16.849Z,20.40
2022-09-30T17:09:50.457Z,20.20
2022-09-30T17:12:17.141Z,20.00
2022-09-30T17:14:46.430Z,19.80
2022-09-30T17:17:14.384Z,19.60
2022-09-30T17:19:41.952Z,19.40
2022-09-30T17:22:08.582Z,19.30
2022-09-30T17:24:35.300Z,19.20
2022-09-30T17:27:10.597Z,19.10
2022-09-30T17:29:42.395Z,19.00
2022-09-30T17:32:09.204Z,18.80
2022-09-30T17:34:35.840Z,18.70
2022-09-30T17:39:37.614Z,18.50
2022-09-30T17:42:23.137Z,18.40
2022-09-30T17:44:52.677Z,18.30
2022-09-30T17:47:22.407Z,18.20
2022-09-30T17:49:51.208Z,18.10
2022-09-30T17:52:20.762Z,18.00
2022-09-30T17:54:52.591Z,17.90
2022-09-30T17:57:20.448Z,17.90
2022-09-30T17:59:47.080Z,17.80
2022-09-30T18:02:18.133Z,17.70
2022-09-30T18:04:44.926Z,17.70
2022-09-30T18:07:13.543Z,17.60
2022-09-30T18:09:42.369Z,17.60
2022-09-30T18:12:08.997Z,17.50
2022-09-30T18:14:35.935Z,17.50
2022-09-30T18:17:04.450Z,17.40
2022-09-30T18:19:35.386Z,17.40
2022-09-30T18:22:02.620Z,17.40
2022-09-30T18:24:49.879Z,17.30
2022-09-30T18:27:18.513Z,17.30
2022-09-30T18:29:45.337Z,17.30
2022-09-30T18:32:22.217Z,17.20
2022-09-30T18:34:48.816Z,17.20
2022-09-30T18:37:19.778Z,17.20
2022-09-30T18:39:46.439Z,17.10
2022-09-30T18:42:13.056Z,17.10
2022-09-30T18:44:40.064Z,17.00
2022-09-30T18:47:09.023Z,17.00
2022-09-30T18:49:35.664Z,17.00
2022-09-30T18:52:04.464Z,16.90
2022-09-30T18:54:32.094Z,16.90
2022-09-30T18:57:01.165Z,16.90
2022-09-30T18:59:38.993Z,16.80
2022-09-30T19:02:05.723Z,16.80
2022-09-30T19:04:32.419Z,16.80
2022-09-30T19:06:59.171Z,16.70
2022-09-30T19:09:26.585Z,16.70
2022-09-30T19:11:54.471Z,16.70
2022-09-30T19:14:21.160Z,16.70
2022-09-30T19:16:47.920Z,16.60
2022-09-30T19:19:16.219Z,16.60
2022-09-30T19:21:44.631Z,16.60
2022-09-30T19:24:14.614Z,16.60
2022-09-30T19:26:44.090Z,16.60
2022-09-30T19:29:13.428Z,16.50
2022-09-30T19:31:43.960Z,16.50
2022-09-30T19:34:12.486Z,16.50
2022-09-30T19:36:50.481Z,16.50
2022-09-30T19:39:39.718Z,16.50
2022-09-30T19:42:14.287Z,16.50
2022-09-30T19:44:41.812Z,16.50
2022-09-30T19:47:12.263Z,16.40
2022-09-30T19:49:38.922Z,16.40
2022-09-30T19:52:16.207Z,16.40
2022-09-30T19:54:44.544Z,16.40
2022-09-30T19:57:11.318Z,16.40
2022-09-30T19:59:37.969Z,16.40
2022-09-30T20:02:07.113Z,16.40
2022-09-30T20:04:36.339Z,16.30
2022-09-30T20:07:07.803Z,16.30
2022-09-30T20:09:35.655Z,16.30
2022-09-30T20:12:02.341Z,16.30
2022-09-30T20:14:47.916Z,16.30
2022-09-30T20:17:22.341Z,16.30
2022-09-30T20:20:10.440Z,16.40
2022-09-30T20:22:40.036Z,16.40
2022-09-30T20:25:07.017Z,16.40
2022-09-30T20:27:33.678Z,16.40
2022-09-30T20:30:03.157Z,16.40
2022-09-30T20:32:32.052Z,16.40
2022-09-30T20:34:58.674Z,16.40
2022-09-30T20:37:26.848Z,16.40
2022-09-30T20:39:57.575Z,16.40
2022-09-30T20:42:25.516Z,16.40
2022-09-30T20:45:00.895Z,16.40
2022-09-30T20:47:28.749Z,16.40
2022-09-30T20:50:02.938Z,16.40
2022-09-30T20:52:35.740Z,16.50
2022-09-30T20:55:02.444Z,16.40
2022-09-30T20:57:30.031Z,16.40
2022-09-30T21:00:01.737Z,16.40
2022-09-30T21:02:31.780Z,16.40
2022-09-30T21:05:02.008Z,16.40
2022-09-30T21:07:28.649Z,16.50
2022-09-30T21:09:55.248Z,16.50
2022-09-30T21:12:24.413Z,16.50
2022-09-30T21:14:52.282Z,16.50
2022-09-30T21:17:18.879Z,16.40
2022-09-30T21:19:45.502Z,16.40
2022-09-30T21:22:12.185Z,16.40
2022-09-30T21:24:41.296Z,16.50
2022-09-30T21:27:07.962Z,16.50
2022-09-30T21:29:40.419Z,16.50
2022-09-30T21:32:09.738Z,16.50
2022-09-30T21:34:42.341Z,16.50
2022-09-30T21:37:12.760Z,16.50
2022-09-30T21:39:44.037Z,16.50
2022-09-30T21:42:10.664Z,16.50
2022-09-30T21:44:42.619Z,16.50
2022-09-30T21:47:11.882Z,16.40
2022-09-30T21:49:41.366Z,16.50
2022-09-30T21:52:13.556Z,16.50
2022-09-30T21:54:40.677Z,16.40
2022-09-30T21:57:10.280Z,16.50
2022-09-30T21:59:44.680Z,16.50
2022-09-30T22:02:18.324Z,16.50
2022-09-30T22:04:45.280Z,16.50
2022-09-30T22:07:11.952Z,16.50
2022-09-30T22:09:39.639Z,16.50
2022-09-30T22:12:08.890Z,16.40
2022-09-30T22:14:37.182Z,16.50
2022-09-30T22:17:08.240Z,16.50
2022-09-30T22:19:37.756Z,16.50
2022-09-30T22:22:04.468Z,16.50
2022-09-30T22:24:32.350Z,16.50
2022-09-30T22:27:07.407Z,16.50
2022-09-30T22:29:34.483Z,16.50
2022-09-30T22:32:04.682Z,16.50
2022-09-30T22:34:52.885Z,16.50
2022-09-30T22:37:40.754Z,16.50
2022-09-30T22:40:07.654Z,16.50
2022-09-30T22:42:41.193Z,16.50
2022-09-30T22:45:08.177Z,16.50
2022-09-30T22:47:35.960Z,16.50
2022-09-30T22:50:03.643Z,16.50
2022-09-30T22:52:34.336Z,16.50
2022-09-30T22:55:01.141Z,16.50
2022-09-30T22:57:30.908Z,16.50
2022-09-30T23:00:01.449Z,16.50
2022-09-30T23:02:28.473Z,16.50
2022-09-30T23:04:55.176Z,16.50
2022-09-30T23:07:23.157Z,16.50
2022-09-30T23:09:49.759Z,16.50
2022-09-30T23:12:16.386Z,16.60
2022-09-30T23:14:43.021Z,16.50
2022-09-30T23:17:09.672Z,16.60
2022-09-30T23:19:37.535Z,16.50
2022-09-30T23:22:04.769Z,16.60
2022-09-30T23:24:36.215Z,16.60
2022-09-30T23:27:02.860Z,16.60
2022-09-30T23:29:29.508Z,16.60
2022-09-30T23:31:59.058Z,16.60
2022-09-30T23:34:27.984Z,16.60
2022-09-30T23:36:56.993Z,16.60
2022-09-30T23:39:23.619Z,16.60
2022-09-30T23:41:50.665Z,16.60
2022-09-30T23:44:20.323Z,16.60
2022-09-30T23:47:06.654Z,16.50
2022-09-30T23:49:35.641Z,16.50
2022-09-30T23:52:09.233Z,16.50
2022-09-30T23:54:45.057Z,16.40
2022-09-30T23:57:16.041Z,16.30
2022-09-30T23:59:42.719Z,16.30
